Terminal Aerodrome Forecast
Issued by NWS

Home | Current Version | Previous Version | Graphics & Text | Print | Product List | Glossary On
Versions: 1 2 3 4 5 6 7 8 9 10 11 12 13
119
FTUS45 KGGW 101124
TAFSDY
TAF
KSDY 101124Z 1012/1112 21006KT P6SM SCT250
     FM101500 32009KT P6SM SCT200
     FM101800 33013KT P6SM BKN080
     FM110000 36007KT P6SM BKN025
     FM110800 VRB05KT P6SM OVC015
      AMD LTD TO CLD VIS AND WIND=

USA.gov is the U.S. government's official web portal to all federal, state and local government web resources and services.